TRA22C EBBR-GMMX
Flight info
| Callsign | TRA22C |
|---|---|
| Flight time | 3h 26m |
| Altitude | 33000 |
| Route | CIV3L CIV N872 LESDO DCT KOVIN DCT NIDUV DCT KIHVI DCT PON DCT DITAL/N0438F350 DCT GODIX DCT DIDAK DCT KURIS/N0443F370 DCT TERPO DCT ERIGA DCT FUJTI DCT BAKUP DCT BATAX DCT ALAGU DCT AMSEL UR722 MABAP MABAP1A |
| Aircraft | B738/M-SDE2E3FGHIJ1RWXYZ/LB1 |
Departure
| Time | 2026-04-30 09:28 |
|---|---|
| Airport | Brussels Airport (EBBR) |
Arrival
| Time | 2026-04-30 12:54 |
|---|---|
| Airport | Marrakesh Menara Airport (GMMX) |
| Time | Latitude | Longitude | Altitude | Speed | Heading |
|---|---|---|---|---|---|
| 2026-04-30 09:14 | 50.89938 | 4.48678 | 125 ft | 0 kts | 335° |
| 2026-04-30 09:21 | 50.89935 | 4.48679 | 125 ft | 3 kts | 335° |
| 2026-04-30 09:21 | 50.89911 | 4.48697 | 129 ft | 4 kts | 337° |
| 2026-04-30 09:21 | 50.89886 | 4.48713 | 132 ft | 4 kts | 340° |
| 2026-04-30 09:22 | 50.89860 | 4.48725 | 134 ft | 4 kts | 352° |
| 2026-04-30 09:22 | 50.89836 | 4.48723 | 135 ft | 4 kts | 39° |
| 2026-04-30 09:22 | 50.89831 | 4.48715 | 135 ft | 1 kts | 65° |
| 2026-04-30 09:23 | 50.89831 | 4.48716 | 135 ft | 0 kts | 65° |
| 2026-04-30 09:24 | 50.89839 | 4.48745 | 135 ft | 7 kts | 65° |
| 2026-04-30 09:24 | 50.89870 | 4.48847 | 135 ft | 14 kts | 64° |
| 2026-04-30 09:24 | 50.89914 | 4.49003 | 135 ft | 16 kts | 65° |
| 2026-04-30 09:24 | 50.89958 | 4.49158 | 134 ft | 15 kts | 73° |
| 2026-04-30 09:25 | 50.89897 | 4.49247 | 137 ft | 15 kts | 191° |
| 2026-04-30 09:25 | 50.89802 | 4.49208 | 142 ft | 14 kts | 194° |
| 2026-04-30 09:25 | 50.89710 | 4.49171 | 147 ft | 13 kts | 194° |
| 2026-04-30 09:25 | 50.89621 | 4.49157 | 153 ft | 13 kts | 159° |
| 2026-04-30 09:26 | 50.89537 | 4.49180 | 157 ft | 13 kts | 192° |
| 2026-04-30 09:26 | 50.89454 | 4.49142 | 161 ft | 12 kts | 194° |
| 2026-04-30 09:26 | 50.89366 | 4.49108 | 164 ft | 14 kts | 194° |
| 2026-04-30 09:26 | 50.89274 | 4.49071 | 168 ft | 13 kts | 193° |
| 2026-04-30 09:27 | 50.89186 | 4.49038 | 175 ft | 13 kts | 192° |
| 2026-04-30 09:27 | 50.89153 | 4.49122 | 175 ft | 12 kts | 69° |
| 2026-04-30 09:27 | 50.89225 | 4.49433 | 175 ft | 61 kts | 70° |
| 2026-04-30 09:27 | 50.89448 | 4.50392 | 175 ft | 123 kts | 70° |
| 2026-04-30 09:28 | 50.89801 | 4.51908 | 270 ft | 162 kts | 69° |
| 2026-04-30 09:28 | 50.90201 | 4.53568 | 942 ft | 166 kts | 68° |
| 2026-04-30 09:28 | 50.90751 | 4.55231 | 1451 ft | 182 kts | 63° |
| 2026-04-30 09:28 | 50.91342 | 4.57137 | 1710 ft | 208 kts | 66° |
| 2026-04-30 09:29 | 50.92156 | 4.59131 | 2025 ft | 227 kts | 42° |
| 2026-04-30 09:29 | 50.93696 | 4.60088 | 2328 ft | 253 kts | 7° |
| 2026-04-30 09:29 | 50.95476 | 4.59691 | 2989 ft | 267 kts | 342° |
| 2026-04-30 09:29 | 50.97075 | 4.58059 | 3616 ft | 283 kts | 315° |
| 2026-04-30 09:30 | 50.97977 | 4.55279 | 4334 ft | 289 kts | 280° |
| 2026-04-30 09:30 | 50.98214 | 4.52107 | 5085 ft | 292 kts | 275° |
| 2026-04-30 09:30 | 50.98442 | 4.48883 | 5741 ft | 297 kts | 273° |
| 2026-04-30 09:30 | 50.98180 | 4.45658 | 6384 ft | 296 kts | 243° |
| 2026-04-30 09:31 | 50.97085 | 4.42962 | 7118 ft | 290 kts | 221° |
| 2026-04-30 09:31 | 50.95652 | 4.40711 | 7825 ft | 292 kts | 219° |
| 2026-04-30 09:31 | 50.94173 | 4.38481 | 8486 ft | 295 kts | 219° |
| 2026-04-30 09:31 | 50.92666 | 4.36230 | 9139 ft | 299 kts | 219° |
| 2026-04-30 09:32 | 50.91148 | 4.33965 | 9840 ft | 301 kts | 219° |
| 2026-04-30 09:32 | 50.89621 | 4.31674 | 10507 ft | 304 kts | 219° |
| 2026-04-30 09:32 | 50.88077 | 4.29351 | 11127 ft | 308 kts | 220° |
| 2026-04-30 09:32 | 50.86518 | 4.27000 | 11784 ft | 311 kts | 220° |
| 2026-04-30 09:33 | 50.84947 | 4.24627 | 12453 ft | 314 kts | 220° |
| 2026-04-30 09:33 | 50.83361 | 4.22235 | 13086 ft | 317 kts | 220° |
| 2026-04-30 09:33 | 50.81754 | 4.19812 | 13707 ft | 321 kts | 220° |
| 2026-04-30 09:33 | 50.80102 | 4.17324 | 14035 ft | 338 kts | 220° |
| 2026-04-30 09:34 | 50.78359 | 4.14700 | 14378 ft | 352 kts | 221° |
| 2026-04-30 09:34 | 50.76576 | 4.12013 | 15009 ft | 356 kts | 221° |
| 2026-04-30 09:34 | 50.74779 | 4.09307 | 15692 ft | 358 kts | 221° |
| 2026-04-30 09:34 | 50.72966 | 4.06580 | 16331 ft | 362 kts | 221° |
| 2026-04-30 09:35 | 50.71134 | 4.03829 | 16941 ft | 366 kts | 221° |
| 2026-04-30 09:35 | 50.69282 | 4.01050 | 17551 ft | 369 kts | 221° |
| 2026-04-30 09:35 | 50.67412 | 3.98249 | 18149 ft | 373 kts | 221° |
| 2026-04-30 09:35 | 50.65526 | 3.95425 | 18772 ft | 375 kts | 221° |
| 2026-04-30 09:36 | 50.63632 | 3.92592 | 19383 ft | 377 kts | 221° |
| 2026-04-30 09:36 | 50.61717 | 3.89733 | 19910 ft | 382 kts | 221° |
| 2026-04-30 09:36 | 50.59778 | 3.86843 | 20436 ft | 385 kts | 221° |
| 2026-04-30 09:36 | 50.57812 | 3.83953 | 20979 ft | 388 kts | 218° |
| 2026-04-30 09:37 | 50.55523 | 3.81769 | 21468 ft | 386 kts | 200° |
| 2026-04-30 09:37 | 50.53041 | 3.80142 | 21999 ft | 388 kts | 199° |
| 2026-04-30 09:37 | 50.50531 | 3.78513 | 22468 ft | 393 kts | 199° |
| 2026-04-30 09:37 | 50.48001 | 3.76848 | 22955 ft | 396 kts | 200° |
| 2026-04-30 09:38 | 50.45461 | 3.75148 | 23426 ft | 399 kts | 200° |
| 2026-04-30 09:38 | 50.42903 | 3.73417 | 23866 ft | 402 kts | 200° |
| 2026-04-30 09:38 | 50.40359 | 3.71687 | 24296 ft | 405 kts | 200° |
| 2026-04-30 09:38 | 50.37764 | 3.69920 | 24747 ft | 408 kts | 200° |
| 2026-04-30 09:39 | 50.35122 | 3.68125 | 25206 ft | 409 kts | 200° |
| 2026-04-30 09:39 | 50.32536 | 3.66375 | 25637 ft | 412 kts | 200° |
| 2026-04-30 09:39 | 50.29902 | 3.64594 | 26061 ft | 414 kts | 200° |
| 2026-04-30 09:39 | 50.27253 | 3.62804 | 26465 ft | 416 kts | 200° |
| 2026-04-30 09:40 | 50.24591 | 3.61006 | 26877 ft | 418 kts | 200° |
| 2026-04-30 09:40 | 50.21916 | 3.59200 | 27269 ft | 420 kts | 200° |
| 2026-04-30 09:40 | 50.19226 | 3.57387 | 27656 ft | 422 kts | 200° |
| 2026-04-30 09:40 | 50.16528 | 3.55577 | 28025 ft | 423 kts | 200° |
| 2026-04-30 09:41 | 50.13812 | 3.53757 | 28377 ft | 426 kts | 200° |
| 2026-04-30 09:41 | 50.11087 | 3.51934 | 28733 ft | 427 kts | 199° |
| 2026-04-30 09:41 | 50.08351 | 3.50105 | 29073 ft | 429 kts | 199° |
| 2026-04-30 09:41 | 50.05600 | 3.48269 | 29390 ft | 431 kts | 199° |
| 2026-04-30 09:42 | 50.02840 | 3.46428 | 29719 ft | 432 kts | 199° |
| 2026-04-30 09:42 | 50.00069 | 3.44582 | 30036 ft | 434 kts | 199° |
| 2026-04-30 09:42 | 49.97289 | 3.42732 | 30340 ft | 435 kts | 199° |
| 2026-04-30 09:42 | 49.94502 | 3.40879 | 30631 ft | 437 kts | 199° |
| 2026-04-30 09:43 | 49.91701 | 3.39019 | 30912 ft | 438 kts | 199° |
| 2026-04-30 09:43 | 49.89845 | 3.37788 | 31094 ft | 439 kts | 199° |
| 2026-04-30 09:43 | 49.87029 | 3.35921 | 31371 ft | 440 kts | 199° |
| 2026-04-30 09:43 | 49.84206 | 3.34053 | 31632 ft | 442 kts | 199° |
| 2026-04-30 09:44 | 49.81375 | 3.32182 | 31895 ft | 443 kts | 199° |
| 2026-04-30 09:44 | 49.78539 | 3.30308 | 32149 ft | 444 kts | 199° |
| 2026-04-30 09:44 | 49.75691 | 3.28425 | 32384 ft | 446 kts | 199° |
| 2026-04-30 09:44 | 49.72836 | 3.26537 | 32615 ft | 447 kts | 199° |
| 2026-04-30 09:45 | 49.69974 | 3.24646 | 32846 ft | 448 kts | 199° |
| 2026-04-30 09:45 | 49.67100 | 3.22749 | 33051 ft | 450 kts | 199° |
| 2026-04-30 09:45 | 49.64218 | 3.20850 | 33251 ft | 451 kts | 199° |
| 2026-04-30 09:45 | 49.61327 | 3.18948 | 33465 ft | 452 kts | 199° |
| 2026-04-30 09:46 | 49.58430 | 3.17042 | 33682 ft | 453 kts | 200° |
| 2026-04-30 09:46 | 49.55528 | 3.15136 | 33890 ft | 454 kts | 199° |
| 2026-04-30 09:46 | 49.52624 | 3.13216 | 34143 ft | 454 kts | 202° |
| 2026-04-30 09:46 | 49.49897 | 3.10724 | 34380 ft | 459 kts | 215° |
| 2026-04-30 09:47 | 49.47564 | 3.07360 | 34630 ft | 462 kts | 227° |
| 2026-04-30 09:47 | 49.45191 | 3.01909 | 34933 ft | 465 kts | 239° |
| 2026-04-30 09:47 | 49.44132 | 2.98970 | 35086 ft | 465 kts | 239° |
| 2026-04-30 09:47 | 49.42580 | 2.94616 | 35297 ft | 465 kts | 239° |
| 2026-04-30 09:48 | 49.41014 | 2.90277 | 35539 ft | 464 kts | 239° |
| 2026-04-30 09:48 | 49.39434 | 2.85975 | 35795 ft | 462 kts | 238° |
| 2026-04-30 09:48 | 49.37861 | 2.81755 | 36016 ft | 461 kts | 238° |
| 2026-04-30 09:48 | 49.36265 | 2.77501 | 36233 ft | 460 kts | 238° |
| 2026-04-30 09:49 | 49.34667 | 2.73250 | 36436 ft | 460 kts | 238° |
| 2026-04-30 09:49 | 49.33105 | 2.68984 | 36650 ft | 459 kts | 240° |
| 2026-04-30 09:49 | 49.31579 | 2.64646 | 37014 ft | 453 kts | 240° |
| 2026-04-30 09:49 | 49.30124 | 2.60455 | 37205 ft | 453 kts | 241° |
| 2026-04-30 09:50 | 49.27129 | 2.51889 | 37200 ft | 458 kts | 240° |
| 2026-04-30 09:50 | 49.24113 | 2.43355 | 37184 ft | 454 kts | 240° |
| 2026-04-30 09:51 | 49.21111 | 2.34903 | 37194 ft | 451 kts | 240° |
| 2026-04-30 09:51 | 49.18095 | 2.26529 | 37195 ft | 448 kts | 239° |
| 2026-04-30 09:52 | 49.15028 | 2.18253 | 37197 ft | 447 kts | 239° |
| 2026-04-30 09:52 | 49.11964 | 2.09985 | 37179 ft | 448 kts | 239° |
| 2026-04-30 09:53 | 49.08954 | 2.01659 | 37179 ft | 449 kts | 243° |
| 2026-04-30 09:53 | 49.06329 | 1.92990 | 37179 ft | 451 kts | 244° |
| 2026-04-30 09:54 | 49.03757 | 1.84253 | 37178 ft | 452 kts | 244° |
| 2026-04-30 09:54 | 49.01147 | 1.75516 | 37180 ft | 454 kts | 244° |
| 2026-04-30 09:55 | 48.98505 | 1.66773 | 37169 ft | 455 kts | 244° |
| 2026-04-30 09:55 | 48.95846 | 1.58028 | 37167 ft | 456 kts | 244° |
| 2026-04-30 09:56 | 48.93175 | 1.49280 | 37167 ft | 456 kts | 244° |
| 2026-04-30 09:56 | 48.90499 | 1.40545 | 37160 ft | 455 kts | 244° |
| 2026-04-30 09:57 | 48.87822 | 1.31827 | 37155 ft | 455 kts | 244° |
| 2026-04-30 09:57 | 48.85144 | 1.23141 | 37157 ft | 454 kts | 244° |
| 2026-04-30 09:58 | 48.82483 | 1.14538 | 37154 ft | 453 kts | 243° |
| 2026-04-30 09:58 | 48.79805 | 1.05909 | 37160 ft | 451 kts | 243° |
| 2026-04-30 09:59 | 48.74442 | 0.88752 | 37147 ft | 449 kts | 242° |
| 2026-04-30 10:00 | 48.69650 | 0.76613 | 37139 ft | 447 kts | 236° |
| 2026-04-30 10:01 | 48.64691 | 0.64655 | 37139 ft | 447 kts | 237° |
| 2026-04-30 10:02 | 48.59791 | 0.52657 | 37139 ft | 447 kts | 237° |
| 2026-04-30 10:02 | 48.56523 | 0.44658 | 37131 ft | 448 kts | 237° |
| 2026-04-30 10:03 | 48.53248 | 0.36667 | 37128 ft | 447 kts | 237° |
| 2026-04-30 10:03 | 48.49968 | 0.28691 | 37123 ft | 448 kts | 237° |
| 2026-04-30 10:04 | 48.46682 | 0.20723 | 37120 ft | 447 kts | 237° |
| 2026-04-30 10:04 | 48.43393 | 0.12774 | 37110 ft | 447 kts | 237° |
| 2026-04-30 10:05 | 48.40101 | 0.04834 | 37107 ft | 447 kts | 237° |
| 2026-04-30 10:05 | 48.36804 | -0.03089 | 37106 ft | 446 kts | 236° |
| 2026-04-30 10:06 | 48.33235 | -0.10689 | 37105 ft | 444 kts | 230° |
| 2026-04-30 10:06 | 48.29470 | -0.18057 | 37084 ft | 444 kts | 230° |
| 2026-04-30 10:07 | 48.25754 | -0.25474 | 37093 ft | 444 kts | 230° |
| 2026-04-30 10:07 | 48.22022 | -0.32845 | 37099 ft | 443 kts | 230° |
| 2026-04-30 10:08 | 48.18271 | -0.40164 | 37083 ft | 442 kts | 230° |
| 2026-04-30 10:08 | 48.14524 | -0.47470 | 37086 ft | 442 kts | 230° |
| 2026-04-30 10:09 | 48.10808 | -0.54704 | 37082 ft | 441 kts | 230° |
| 2026-04-30 10:09 | 48.07066 | -0.61972 | 37075 ft | 441 kts | 230° |
| 2026-04-30 10:10 | 48.03322 | -0.69225 | 37073 ft | 440 kts | 230° |
| 2026-04-30 10:10 | 47.99575 | -0.76467 | 37076 ft | 441 kts | 230° |
| 2026-04-30 10:11 | 47.95820 | -0.83703 | 37080 ft | 441 kts | 230° |
| 2026-04-30 10:11 | 47.92064 | -0.90922 | 37070 ft | 441 kts | 230° |
| 2026-04-30 10:12 | 47.88304 | -0.98132 | 37076 ft | 440 kts | 230° |
| 2026-04-30 10:12 | 47.84542 | -1.05321 | 37072 ft | 440 kts | 230° |
| 2026-04-30 10:13 | 47.80773 | -1.12506 | 37061 ft | 440 kts | 230° |
| 2026-04-30 10:13 | 47.77002 | -1.19686 | 37070 ft | 440 kts | 230° |
| 2026-04-30 10:14 | 47.73224 | -1.26851 | 37062 ft | 440 kts | 229° |
| 2026-04-30 10:14 | 47.67554 | -1.37573 | 37058 ft | 440 kts | 229° |
| 2026-04-30 10:15 | 47.63774 | -1.44702 | 37053 ft | 440 kts | 229° |
| 2026-04-30 10:15 | 47.60014 | -1.51763 | 37053 ft | 439 kts | 228° |
| 2026-04-30 10:16 | 47.56003 | -1.58564 | 37055 ft | 438 kts | 225° |
| 2026-04-30 10:17 | 47.49822 | -1.68548 | 37053 ft | 440 kts | 225° |
| 2026-04-30 10:17 | 47.43662 | -1.78610 | 37032 ft | 440 kts | 225° |
| 2026-04-30 10:18 | 47.39559 | -1.85316 | 37044 ft | 440 kts | 225° |
| 2026-04-30 10:19 | 47.33035 | -1.94739 | 37025 ft | 435 kts | 210° |
| 2026-04-30 10:19 | 47.27855 | -1.99317 | 37022 ft | 435 kts | 208° |
| 2026-04-30 10:20 | 47.22659 | -2.03869 | 37029 ft | 434 kts | 209° |
| 2026-04-30 10:20 | 47.14900 | -2.10754 | 37029 ft | 434 kts | 209° |
| 2026-04-30 10:21 | 47.09735 | -2.15340 | 37023 ft | 434 kts | 209° |
| 2026-04-30 10:21 | 47.04568 | -2.19920 | 37027 ft | 434 kts | 209° |
| 2026-04-30 10:22 | 46.99408 | -2.24484 | 37035 ft | 433 kts | 209° |
| 2026-04-30 10:22 | 46.94247 | -2.29041 | 37036 ft | 434 kts | 209° |
| 2026-04-30 10:23 | 46.89069 | -2.33599 | 37024 ft | 435 kts | 209° |
| 2026-04-30 10:23 | 46.83913 | -2.38129 | 37029 ft | 436 kts | 209° |
| 2026-04-30 10:24 | 46.78714 | -2.42692 | 37030 ft | 437 kts | 209° |
| 2026-04-30 10:24 | 46.73503 | -2.47257 | 37028 ft | 437 kts | 209° |
| 2026-04-30 10:25 | 46.68284 | -2.51815 | 37027 ft | 437 kts | 209° |
| 2026-04-30 10:25 | 46.63063 | -2.56370 | 37026 ft | 438 kts | 209° |
| 2026-04-30 10:26 | 46.57840 | -2.60919 | 37026 ft | 437 kts | 209° |
| 2026-04-30 10:26 | 46.52625 | -2.65451 | 37027 ft | 436 kts | 209° |
| 2026-04-30 10:27 | 46.47407 | -2.69963 | 37031 ft | 437 kts | 209° |
| 2026-04-30 10:27 | 46.42192 | -2.74474 | 37021 ft | 436 kts | 209° |
| 2026-04-30 10:28 | 46.36977 | -2.78972 | 37034 ft | 436 kts | 209° |
| 2026-04-30 10:28 | 46.31765 | -2.83461 | 37038 ft | 436 kts | 209° |
| 2026-04-30 10:29 | 46.26547 | -2.87943 | 37037 ft | 436 kts | 209° |
| 2026-04-30 10:29 | 46.21341 | -2.92456 | 37031 ft | 436 kts | 209° |
| 2026-04-30 10:30 | 46.16143 | -2.96988 | 37036 ft | 437 kts | 209° |
| 2026-04-30 10:30 | 46.10943 | -3.01514 | 37040 ft | 437 kts | 209° |
| 2026-04-30 10:31 | 46.05738 | -3.06029 | 37033 ft | 437 kts | 209° |
| 2026-04-30 10:31 | 46.01408 | -3.09770 | 37045 ft | 437 kts | 209° |
| 2026-04-30 10:32 | 45.95350 | -3.15001 | 37032 ft | 437 kts | 210° |
| 2026-04-30 10:32 | 45.90137 | -3.19485 | 37041 ft | 437 kts | 210° |
| 2026-04-30 10:33 | 45.85766 | -3.23242 | 37041 ft | 437 kts | 210° |
| 2026-04-30 10:33 | 45.80549 | -3.27716 | 37046 ft | 437 kts | 210° |
| 2026-04-30 10:34 | 45.75332 | -3.32177 | 37048 ft | 437 kts | 210° |
| 2026-04-30 10:34 | 45.70144 | -3.36606 | 37047 ft | 437 kts | 210° |
| 2026-04-30 10:35 | 45.64927 | -3.41052 | 37048 ft | 437 kts | 210° |
| 2026-04-30 10:35 | 45.59708 | -3.45492 | 37045 ft | 436 kts | 210° |
| 2026-04-30 10:36 | 45.54481 | -3.49919 | 37049 ft | 437 kts | 210° |
| 2026-04-30 10:36 | 45.49252 | -3.54339 | 37045 ft | 437 kts | 210° |
| 2026-04-30 10:37 | 45.44023 | -3.58756 | 37056 ft | 437 kts | 210° |
| 2026-04-30 10:37 | 45.38791 | -3.63165 | 37056 ft | 437 kts | 210° |
| 2026-04-30 10:38 | 45.33554 | -3.67568 | 37052 ft | 437 kts | 210° |
| 2026-04-30 10:38 | 45.28321 | -3.71958 | 37054 ft | 437 kts | 210° |
| 2026-04-30 10:39 | 45.23087 | -3.76339 | 37057 ft | 437 kts | 210° |
| 2026-04-30 10:39 | 45.17852 | -3.80711 | 37055 ft | 437 kts | 210° |
| 2026-04-30 10:40 | 45.12618 | -3.85073 | 37055 ft | 436 kts | 210° |
| 2026-04-30 10:40 | 45.07389 | -3.89422 | 37057 ft | 436 kts | 211° |
| 2026-04-30 10:41 | 45.02154 | -3.93766 | 37056 ft | 436 kts | 211° |
| 2026-04-30 10:41 | 44.96917 | -3.98105 | 37065 ft | 436 kts | 211° |
| 2026-04-30 10:42 | 44.91681 | -4.02431 | 37065 ft | 436 kts | 211° |
| 2026-04-30 10:42 | 44.86446 | -4.06747 | 37061 ft | 436 kts | 211° |
| 2026-04-30 10:43 | 44.81213 | -4.11050 | 37066 ft | 435 kts | 211° |
| 2026-04-30 10:43 | 44.75983 | -4.15344 | 37063 ft | 435 kts | 211° |
| 2026-04-30 10:44 | 44.70753 | -4.19630 | 37065 ft | 435 kts | 212° |
| 2026-04-30 10:44 | 44.65561 | -4.23877 | 37064 ft | 435 kts | 212° |
| 2026-04-30 10:45 | 44.60331 | -4.28145 | 37067 ft | 435 kts | 212° |
| 2026-04-30 10:45 | 44.55099 | -4.32402 | 37063 ft | 435 kts | 212° |
| 2026-04-30 10:46 | 44.49868 | -4.36654 | 37073 ft | 434 kts | 212° |
| 2026-04-30 10:46 | 44.44639 | -4.40897 | 37075 ft | 434 kts | 212° |
| 2026-04-30 10:47 | 44.39416 | -4.45149 | 37075 ft | 434 kts | 212° |
| 2026-04-30 10:47 | 44.34247 | -4.49521 | 37076 ft | 434 kts | 213° |
| 2026-04-30 10:48 | 44.29088 | -4.53915 | 37073 ft | 434 kts | 213° |
| 2026-04-30 10:48 | 44.23923 | -4.58295 | 37075 ft | 434 kts | 213° |
| 2026-04-30 10:49 | 44.18750 | -4.62658 | 37074 ft | 434 kts | 213° |
| 2026-04-30 10:49 | 44.13576 | -4.67009 | 37073 ft | 434 kts | 213° |
| 2026-04-30 10:50 | 44.08403 | -4.71349 | 37073 ft | 434 kts | 213° |
| 2026-04-30 10:50 | 44.03233 | -4.75677 | 37074 ft | 434 kts | 213° |
| 2026-04-30 10:51 | 43.98062 | -4.79999 | 37074 ft | 434 kts | 213° |
| 2026-04-30 10:51 | 43.92889 | -4.84312 | 37079 ft | 433 kts | 213° |
| 2026-04-30 10:52 | 43.87721 | -4.88613 | 37070 ft | 433 kts | 213° |
| 2026-04-30 10:52 | 43.82561 | -4.92898 | 37074 ft | 432 kts | 213° |
| 2026-04-30 10:53 | 43.77418 | -4.97160 | 37076 ft | 431 kts | 214° |
| 2026-04-30 10:53 | 43.72282 | -5.01412 | 37071 ft | 430 kts | 214° |
| 2026-04-30 10:54 | 43.67159 | -5.05642 | 37073 ft | 428 kts | 214° |
| 2026-04-30 10:54 | 43.62053 | -5.09849 | 37071 ft | 427 kts | 214° |
| 2026-04-30 10:55 | 43.56956 | -5.14040 | 37074 ft | 426 kts | 214° |
| 2026-04-30 10:55 | 43.51868 | -5.18217 | 37077 ft | 425 kts | 214° |
| 2026-04-30 10:56 | 43.46782 | -5.22382 | 37084 ft | 425 kts | 214° |
| 2026-04-30 10:56 | 43.41694 | -5.26539 | 37096 ft | 425 kts | 214° |
| 2026-04-30 10:57 | 43.36605 | -5.30689 | 37093 ft | 426 kts | 214° |
| 2026-04-30 10:57 | 43.31509 | -5.34837 | 37100 ft | 426 kts | 214° |
| 2026-04-30 10:58 | 43.26439 | -5.38958 | 37097 ft | 427 kts | 214° |
| 2026-04-30 10:58 | 43.21329 | -5.43103 | 37092 ft | 427 kts | 214° |
| 2026-04-30 10:59 | 43.16206 | -5.47247 | 37110 ft | 427 kts | 214° |
| 2026-04-30 10:59 | 43.11084 | -5.51384 | 37101 ft | 427 kts | 214° |
| 2026-04-30 11:00 | 43.05963 | -5.55513 | 37098 ft | 426 kts | 214° |
| 2026-04-30 11:00 | 43.00869 | -5.59611 | 37111 ft | 425 kts | 214° |
| 2026-04-30 11:01 | 42.95781 | -5.63698 | 37106 ft | 424 kts | 214° |
| 2026-04-30 11:01 | 42.90709 | -5.67763 | 37109 ft | 422 kts | 214° |
| 2026-04-30 11:02 | 42.85655 | -5.71807 | 37113 ft | 420 kts | 214° |
| 2026-04-30 11:02 | 42.80657 | -5.75800 | 37125 ft | 419 kts | 214° |
| 2026-04-30 11:03 | 42.75631 | -5.79802 | 37120 ft | 418 kts | 214° |
| 2026-04-30 11:04 | 42.68114 | -5.85776 | 37129 ft | 416 kts | 214° |
| 2026-04-30 11:04 | 42.63118 | -5.89739 | 37128 ft | 416 kts | 214° |
| 2026-04-30 11:05 | 42.58120 | -5.93698 | 37132 ft | 416 kts | 214° |
| 2026-04-30 11:05 | 42.53119 | -5.97650 | 37132 ft | 416 kts | 214° |
| 2026-04-30 11:06 | 42.48116 | -6.01595 | 37130 ft | 416 kts | 214° |
| 2026-04-30 11:06 | 42.43111 | -6.05536 | 37128 ft | 416 kts | 214° |
| 2026-04-30 11:07 | 42.38108 | -6.09469 | 37127 ft | 416 kts | 214° |
| 2026-04-30 11:07 | 42.33105 | -6.13393 | 37135 ft | 415 kts | 214° |
| 2026-04-30 11:08 | 42.28105 | -6.17309 | 37127 ft | 416 kts | 215° |
| 2026-04-30 11:08 | 42.23105 | -6.21215 | 37127 ft | 415 kts | 214° |
| 2026-04-30 11:09 | 42.18112 | -6.25108 | 37132 ft | 415 kts | 214° |
| 2026-04-30 11:09 | 42.13118 | -6.28995 | 37126 ft | 414 kts | 214° |
| 2026-04-30 11:10 | 42.08125 | -6.32875 | 37133 ft | 414 kts | 214° |
| 2026-04-30 11:10 | 42.03134 | -6.36746 | 37127 ft | 414 kts | 214° |
| 2026-04-30 11:11 | 41.98138 | -6.40614 | 37134 ft | 414 kts | 214° |
| 2026-04-30 11:11 | 41.93177 | -6.44449 | 37120 ft | 414 kts | 214° |
| 2026-04-30 11:12 | 41.88148 | -6.48329 | 37126 ft | 414 kts | 214° |
| 2026-04-30 11:12 | 41.83183 | -6.52152 | 37115 ft | 414 kts | 214° |
| 2026-04-30 11:13 | 41.78185 | -6.55997 | 37112 ft | 414 kts | 214° |
| 2026-04-30 11:13 | 41.73190 | -6.59831 | 37124 ft | 414 kts | 214° |
| 2026-04-30 11:14 | 41.67893 | -6.62938 | 37120 ft | 423 kts | 199° |
| 2026-04-30 11:14 | 41.62124 | -6.64600 | 37111 ft | 425 kts | 197° |
| 2026-04-30 11:15 | 41.56344 | -6.66212 | 37112 ft | 424 kts | 197° |
| 2026-04-30 11:15 | 41.50577 | -6.67844 | 37113 ft | 423 kts | 197° |
| 2026-04-30 11:16 | 41.44830 | -6.69490 | 37114 ft | 422 kts | 197° |
| 2026-04-30 11:16 | 41.39102 | -6.71137 | 37125 ft | 421 kts | 197° |
| 2026-04-30 11:17 | 41.33379 | -6.72782 | 37119 ft | 421 kts | 197° |
| 2026-04-30 11:17 | 41.27658 | -6.74420 | 37120 ft | 420 kts | 197° |
| 2026-04-30 11:18 | 41.21940 | -6.76056 | 37119 ft | 420 kts | 197° |
| 2026-04-30 11:18 | 41.13376 | -6.78496 | 37120 ft | 420 kts | 197° |
| 2026-04-30 11:19 | 41.07669 | -6.80123 | 37118 ft | 419 kts | 197° |
| 2026-04-30 11:19 | 41.02928 | -6.81470 | 37119 ft | 419 kts | 197° |
| 2026-04-30 11:20 | 40.97232 | -6.83088 | 37123 ft | 418 kts | 196° |
| 2026-04-30 11:20 | 40.91536 | -6.84702 | 37125 ft | 419 kts | 196° |
| 2026-04-30 11:21 | 40.85837 | -6.86315 | 37123 ft | 419 kts | 196° |
| 2026-04-30 11:21 | 40.80138 | -6.87922 | 37117 ft | 418 kts | 196° |
| 2026-04-30 11:22 | 40.74455 | -6.89523 | 37115 ft | 417 kts | 196° |
| 2026-04-30 11:22 | 40.68774 | -6.91120 | 37116 ft | 417 kts | 196° |
| 2026-04-30 11:23 | 40.63102 | -6.92713 | 37105 ft | 417 kts | 196° |
| 2026-04-30 11:24 | 40.54600 | -6.95099 | 37105 ft | 416 kts | 196° |
| 2026-04-30 11:24 | 40.48941 | -6.96678 | 37117 ft | 416 kts | 196° |
| 2026-04-30 11:25 | 40.40456 | -6.99043 | 37109 ft | 415 kts | 196° |
| 2026-04-30 11:26 | 40.29151 | -7.02188 | 37107 ft | 415 kts | 196° |
| 2026-04-30 11:26 | 40.23503 | -7.03755 | 37111 ft | 415 kts | 196° |
| 2026-04-30 11:27 | 40.17859 | -7.05316 | 37109 ft | 414 kts | 195° |
| 2026-04-30 11:27 | 40.12219 | -7.06877 | 37111 ft | 415 kts | 195° |
| 2026-04-30 11:28 | 40.03751 | -7.09213 | 37116 ft | 414 kts | 195° |
| 2026-04-30 11:29 | 39.98111 | -7.10766 | 37109 ft | 414 kts | 195° |
| 2026-04-30 11:29 | 39.89652 | -7.13091 | 37107 ft | 414 kts | 195° |
| 2026-04-30 11:30 | 39.81198 | -7.15407 | 37111 ft | 414 kts | 195° |
| 2026-04-30 11:31 | 39.75601 | -7.16938 | 37109 ft | 414 kts | 195° |
| 2026-04-30 11:31 | 39.69966 | -7.18476 | 37111 ft | 414 kts | 195° |
| 2026-04-30 11:32 | 39.64334 | -7.20007 | 37116 ft | 413 kts | 195° |
| 2026-04-30 11:32 | 39.58708 | -7.21538 | 37114 ft | 413 kts | 195° |
| 2026-04-30 11:33 | 39.50269 | -7.23832 | 37095 ft | 413 kts | 194° |
| 2026-04-30 11:33 | 39.44643 | -7.25356 | 37107 ft | 413 kts | 194° |
| 2026-04-30 11:34 | 39.39017 | -7.26878 | 37103 ft | 413 kts | 194° |
| 2026-04-30 11:34 | 39.33395 | -7.28397 | 37106 ft | 413 kts | 194° |
| 2026-04-30 11:35 | 39.27776 | -7.29910 | 37107 ft | 412 kts | 194° |
| 2026-04-30 11:35 | 39.22158 | -7.31424 | 37102 ft | 413 kts | 194° |
| 2026-04-30 11:36 | 39.16534 | -7.32937 | 37100 ft | 413 kts | 194° |
| 2026-04-30 11:36 | 39.10902 | -7.34448 | 37102 ft | 413 kts | 194° |
| 2026-04-30 11:37 | 39.05267 | -7.35958 | 37100 ft | 414 kts | 194° |
| 2026-04-30 11:37 | 38.99627 | -7.37464 | 37105 ft | 414 kts | 194° |
| 2026-04-30 11:38 | 38.93992 | -7.38968 | 37104 ft | 414 kts | 194° |
| 2026-04-30 11:38 | 38.88350 | -7.40474 | 37102 ft | 414 kts | 194° |
| 2026-04-30 11:39 | 38.82703 | -7.41977 | 37101 ft | 414 kts | 194° |
| 2026-04-30 11:39 | 38.77056 | -7.43476 | 37102 ft | 414 kts | 193° |
| 2026-04-30 11:40 | 38.71410 | -7.44973 | 37109 ft | 414 kts | 193° |
| 2026-04-30 11:40 | 38.65803 | -7.46458 | 37096 ft | 414 kts | 193° |
| 2026-04-30 11:41 | 38.60156 | -7.47952 | 37096 ft | 414 kts | 193° |
| 2026-04-30 11:41 | 38.54512 | -7.49443 | 37099 ft | 414 kts | 193° |
| 2026-04-30 11:42 | 38.48870 | -7.50930 | 37099 ft | 414 kts | 193° |
| 2026-04-30 11:42 | 38.43230 | -7.52414 | 37094 ft | 414 kts | 193° |
| 2026-04-30 11:43 | 38.37595 | -7.53895 | 37102 ft | 413 kts | 193° |
| 2026-04-30 11:43 | 38.31962 | -7.55373 | 37107 ft | 414 kts | 193° |
| 2026-04-30 11:44 | 38.26323 | -7.56848 | 37104 ft | 413 kts | 193° |
| 2026-04-30 11:44 | 38.20694 | -7.58322 | 37103 ft | 413 kts | 193° |
| 2026-04-30 11:45 | 38.15062 | -7.59793 | 37103 ft | 413 kts | 193° |
| 2026-04-30 11:45 | 38.09424 | -7.61261 | 37103 ft | 414 kts | 192° |
| 2026-04-30 11:46 | 38.03715 | -7.62220 | 37105 ft | 414 kts | 187° |
| 2026-04-30 11:46 | 37.98010 | -7.62896 | 37106 ft | 415 kts | 187° |
| 2026-04-30 11:47 | 37.92233 | -7.63591 | 37104 ft | 414 kts | 187° |
| 2026-04-30 11:47 | 37.86539 | -7.64307 | 37097 ft | 414 kts | 187° |
| 2026-04-30 11:48 | 37.80807 | -7.65046 | 37105 ft | 414 kts | 187° |
| 2026-04-30 11:48 | 37.75078 | -7.65787 | 37101 ft | 414 kts | 187° |
| 2026-04-30 11:49 | 37.69343 | -7.66528 | 37101 ft | 414 kts | 187° |
| 2026-04-30 11:49 | 37.63601 | -7.67270 | 37100 ft | 415 kts | 187° |
| 2026-04-30 11:50 | 37.57863 | -7.68008 | 37106 ft | 415 kts | 187° |
| 2026-04-30 11:50 | 37.52123 | -7.68745 | 37104 ft | 414 kts | 187° |
| 2026-04-30 11:51 | 37.46388 | -7.69482 | 37101 ft | 414 kts | 187° |
| 2026-04-30 11:51 | 37.40668 | -7.70215 | 37103 ft | 413 kts | 187° |
| 2026-04-30 11:52 | 37.34952 | -7.70946 | 37102 ft | 413 kts | 187° |
| 2026-04-30 11:52 | 37.29240 | -7.71674 | 37106 ft | 412 kts | 187° |
| 2026-04-30 11:53 | 37.23525 | -7.72403 | 37100 ft | 412 kts | 187° |
| 2026-04-30 11:53 | 37.17814 | -7.73130 | 37098 ft | 413 kts | 187° |
| 2026-04-30 11:54 | 37.12099 | -7.73857 | 37101 ft | 413 kts | 187° |
| 2026-04-30 11:54 | 37.06386 | -7.74582 | 37105 ft | 413 kts | 187° |
| 2026-04-30 11:55 | 37.00669 | -7.75307 | 37097 ft | 413 kts | 187° |
| 2026-04-30 11:55 | 36.94990 | -7.76027 | 37100 ft | 413 kts | 187° |
| 2026-04-30 11:56 | 36.89274 | -7.76748 | 37108 ft | 413 kts | 187° |
| 2026-04-30 11:56 | 36.83554 | -7.77469 | 37100 ft | 413 kts | 187° |
| 2026-04-30 11:57 | 36.77831 | -7.78190 | 37103 ft | 413 kts | 187° |
| 2026-04-30 11:57 | 36.72110 | -7.78910 | 37101 ft | 413 kts | 188° |
| 2026-04-30 11:58 | 36.66394 | -7.79627 | 37101 ft | 413 kts | 188° |
| 2026-04-30 11:58 | 36.60680 | -7.80345 | 37097 ft | 412 kts | 188° |
| 2026-04-30 11:59 | 36.54969 | -7.81063 | 37098 ft | 412 kts | 188° |
| 2026-04-30 11:59 | 36.49264 | -7.81775 | 37105 ft | 412 kts | 188° |
| 2026-04-30 12:00 | 36.43562 | -7.82487 | 37095 ft | 412 kts | 188° |
| 2026-04-30 12:00 | 36.37860 | -7.83197 | 37088 ft | 412 kts | 188° |
| 2026-04-30 12:01 | 36.32165 | -7.83905 | 37088 ft | 411 kts | 188° |
| 2026-04-30 12:01 | 36.26469 | -7.84614 | 37090 ft | 411 kts | 187° |
| 2026-04-30 12:02 | 36.20774 | -7.85321 | 37085 ft | 411 kts | 188° |
| 2026-04-30 12:02 | 36.15080 | -7.86027 | 37101 ft | 411 kts | 188° |
| 2026-04-30 12:03 | 36.06536 | -7.87085 | 37091 ft | 412 kts | 187° |
| 2026-04-30 12:04 | 36.00836 | -7.87789 | 37101 ft | 412 kts | 187° |
| 2026-04-30 12:04 | 35.95147 | -7.88246 | 37081 ft | 415 kts | 179° |
| 2026-04-30 12:05 | 35.89389 | -7.87690 | 37093 ft | 415 kts | 178° |
| 2026-04-30 12:05 | 35.83628 | -7.87126 | 37091 ft | 415 kts | 178° |
| 2026-04-30 12:06 | 35.77862 | -7.86589 | 37096 ft | 416 kts | 178° |
| 2026-04-30 12:06 | 35.72088 | -7.86065 | 37084 ft | 416 kts | 178° |
| 2026-04-30 12:07 | 35.66313 | -7.85543 | 37079 ft | 416 kts | 179° |
| 2026-04-30 12:07 | 35.60544 | -7.85023 | 37083 ft | 415 kts | 179° |
| 2026-04-30 12:08 | 35.55721 | -7.84589 | 37083 ft | 415 kts | 179° |
| 2026-04-30 12:08 | 35.49972 | -7.84071 | 37082 ft | 414 kts | 179° |
| 2026-04-30 12:09 | 35.44223 | -7.83554 | 37073 ft | 414 kts | 179° |
| 2026-04-30 12:09 | 35.38481 | -7.83047 | 37073 ft | 413 kts | 179° |
| 2026-04-30 12:10 | 35.32786 | -7.82572 | 37075 ft | 413 kts | 179° |
| 2026-04-30 12:10 | 35.27059 | -7.82099 | 37073 ft | 412 kts | 179° |
| 2026-04-30 12:11 | 35.21332 | -7.81620 | 37074 ft | 412 kts | 179° |
| 2026-04-30 12:11 | 35.15612 | -7.81141 | 37076 ft | 412 kts | 179° |
| 2026-04-30 12:12 | 35.09894 | -7.80664 | 37074 ft | 412 kts | 179° |
| 2026-04-30 12:12 | 35.04182 | -7.80188 | 37072 ft | 411 kts | 179° |
| 2026-04-30 12:13 | 34.98474 | -7.79713 | 37072 ft | 411 kts | 179° |
| 2026-04-30 12:13 | 34.92765 | -7.79239 | 37066 ft | 411 kts | 179° |
| 2026-04-30 12:14 | 34.87052 | -7.78765 | 37064 ft | 411 kts | 179° |
| 2026-04-30 12:14 | 34.81341 | -7.78291 | 37064 ft | 411 kts | 180° |
| 2026-04-30 12:15 | 34.75632 | -7.77819 | 37065 ft | 411 kts | 179° |
| 2026-04-30 12:15 | 34.69963 | -7.77384 | 37064 ft | 411 kts | 180° |
| 2026-04-30 12:16 | 34.64254 | -7.76989 | 37066 ft | 411 kts | 180° |
| 2026-04-30 12:16 | 34.58541 | -7.76593 | 37068 ft | 411 kts | 180° |
| 2026-04-30 12:17 | 34.49971 | -7.75993 | 37063 ft | 411 kts | 180° |
| 2026-04-30 12:17 | 34.44259 | -7.75590 | 37060 ft | 411 kts | 180° |
| 2026-04-30 12:18 | 34.38546 | -7.75190 | 37054 ft | 411 kts | 180° |
| 2026-04-30 12:18 | 34.32832 | -7.74790 | 37055 ft | 412 kts | 180° |
| 2026-04-30 12:19 | 34.27109 | -7.74387 | 37056 ft | 411 kts | 180° |
| 2026-04-30 12:19 | 34.21394 | -7.73987 | 37055 ft | 411 kts | 180° |
| 2026-04-30 12:20 | 34.15687 | -7.73555 | 37053 ft | 411 kts | 179° |
| 2026-04-30 12:20 | 34.09996 | -7.73022 | 37056 ft | 410 kts | 179° |
| 2026-04-30 12:21 | 34.04303 | -7.72482 | 37055 ft | 410 kts | 179° |
| 2026-04-30 12:21 | 33.98613 | -7.71951 | 37054 ft | 410 kts | 179° |
| 2026-04-30 12:22 | 33.92921 | -7.71427 | 37047 ft | 410 kts | 179° |
| 2026-04-30 12:22 | 33.87229 | -7.70905 | 37049 ft | 410 kts | 179° |
| 2026-04-30 12:23 | 33.81540 | -7.70383 | 37044 ft | 410 kts | 179° |
| 2026-04-30 12:23 | 33.75852 | -7.69865 | 37048 ft | 410 kts | 179° |
| 2026-04-30 12:24 | 33.70166 | -7.69346 | 37045 ft | 410 kts | 179° |
| 2026-04-30 12:24 | 33.64477 | -7.68826 | 37050 ft | 410 kts | 179° |
| 2026-04-30 12:25 | 33.58791 | -7.68308 | 37046 ft | 410 kts | 179° |
| 2026-04-30 12:25 | 33.53142 | -7.68345 | 37017 ft | 404 kts | 193° |
| 2026-04-30 12:26 | 33.50425 | -7.69147 | 36637 ft | 400 kts | 200° |
| 2026-04-30 12:26 | 33.47882 | -7.70405 | 36282 ft | 392 kts | 209° |
| 2026-04-30 12:26 | 33.45542 | -7.71961 | 35907 ft | 388 kts | 210° |
| 2026-04-30 12:26 | 33.43205 | -7.73541 | 35489 ft | 384 kts | 210° |
| 2026-04-30 12:27 | 33.40887 | -7.75108 | 35106 ft | 381 kts | 210° |
| 2026-04-30 12:27 | 33.38590 | -7.76653 | 34714 ft | 377 kts | 210° |
| 2026-04-30 12:27 | 33.36315 | -7.78175 | 34336 ft | 373 kts | 210° |
| 2026-04-30 12:27 | 33.34057 | -7.79680 | 33965 ft | 370 kts | 209° |
| 2026-04-30 12:28 | 33.31822 | -7.81164 | 33585 ft | 366 kts | 209° |
| 2026-04-30 12:28 | 33.29601 | -7.82637 | 33210 ft | 363 kts | 209° |
| 2026-04-30 12:28 | 33.27399 | -7.84095 | 32835 ft | 360 kts | 210° |
| 2026-04-30 12:28 | 33.25215 | -7.85539 | 32465 ft | 357 kts | 209° |
| 2026-04-30 12:29 | 33.23050 | -7.86971 | 32097 ft | 355 kts | 209° |
| 2026-04-30 12:29 | 33.20897 | -7.88394 | 31736 ft | 352 kts | 210° |
| 2026-04-30 12:29 | 33.18761 | -7.89804 | 31376 ft | 349 kts | 210° |
| 2026-04-30 12:29 | 33.16643 | -7.91202 | 31016 ft | 347 kts | 210° |
| 2026-04-30 12:30 | 33.14538 | -7.92591 | 30664 ft | 345 kts | 210° |
| 2026-04-30 12:30 | 33.12445 | -7.93972 | 30317 ft | 342 kts | 210° |
| 2026-04-30 12:30 | 33.10367 | -7.95342 | 29965 ft | 340 kts | 210° |
| 2026-04-30 12:30 | 33.08302 | -7.96701 | 29610 ft | 338 kts | 210° |
| 2026-04-30 12:31 | 33.06253 | -7.98049 | 29254 ft | 335 kts | 210° |
| 2026-04-30 12:31 | 33.04218 | -7.99390 | 28899 ft | 334 kts | 210° |
| 2026-04-30 12:31 | 33.02191 | -8.00723 | 28543 ft | 332 kts | 210° |
| 2026-04-30 12:31 | 33.00166 | -8.02055 | 28195 ft | 335 kts | 210° |
| 2026-04-30 12:32 | 32.98087 | -8.03420 | 27850 ft | 348 kts | 210° |
| 2026-04-30 12:32 | 32.95942 | -8.04827 | 27459 ft | 353 kts | 210° |
| 2026-04-30 12:32 | 32.93727 | -8.06074 | 27065 ft | 352 kts | 201° |
| 2026-04-30 12:32 | 32.91379 | -8.06875 | 26691 ft | 351 kts | 192° |
| 2026-04-30 12:33 | 32.88968 | -8.07291 | 26333 ft | 349 kts | 190° |
| 2026-04-30 12:33 | 32.86569 | -8.07658 | 25961 ft | 347 kts | 189° |
| 2026-04-30 12:33 | 32.84185 | -8.08023 | 25599 ft | 344 kts | 190° |
| 2026-04-30 12:33 | 32.81818 | -8.08394 | 25237 ft | 342 kts | 190° |
| 2026-04-30 12:34 | 32.79466 | -8.08770 | 24879 ft | 340 kts | 190° |
| 2026-04-30 12:34 | 32.77128 | -8.09148 | 24524 ft | 338 kts | 190° |
| 2026-04-30 12:34 | 32.74804 | -8.09526 | 24169 ft | 336 kts | 190° |
| 2026-04-30 12:34 | 32.72494 | -8.09902 | 23817 ft | 334 kts | 190° |
| 2026-04-30 12:35 | 32.70197 | -8.10277 | 23474 ft | 332 kts | 190° |
| 2026-04-30 12:35 | 32.67917 | -8.10650 | 23135 ft | 330 kts | 190° |
| 2026-04-30 12:35 | 32.65650 | -8.11021 | 22793 ft | 328 kts | 190° |
| 2026-04-30 12:35 | 32.63397 | -8.11391 | 22445 ft | 326 kts | 190° |
| 2026-04-30 12:36 | 32.61153 | -8.11758 | 22099 ft | 325 kts | 190° |
| 2026-04-30 12:36 | 32.58920 | -8.12124 | 21756 ft | 323 kts | 190° |
| 2026-04-30 12:36 | 32.56697 | -8.12488 | 21407 ft | 322 kts | 190° |
| 2026-04-30 12:36 | 32.54480 | -8.12850 | 21063 ft | 321 kts | 190° |
| 2026-04-30 12:37 | 32.52276 | -8.13211 | 20725 ft | 319 kts | 190° |
| 2026-04-30 12:37 | 32.50078 | -8.13571 | 20377 ft | 318 kts | 190° |
| 2026-04-30 12:37 | 32.47894 | -8.13929 | 20047 ft | 316 kts | 189° |
| 2026-04-30 12:37 | 32.45719 | -8.14283 | 19710 ft | 315 kts | 189° |
| 2026-04-30 12:38 | 32.43553 | -8.14636 | 19378 ft | 314 kts | 189° |
| 2026-04-30 12:38 | 32.41393 | -8.14989 | 19040 ft | 313 kts | 189° |
| 2026-04-30 12:38 | 32.39239 | -8.15339 | 18704 ft | 312 kts | 189° |
| 2026-04-30 12:38 | 32.37096 | -8.15688 | 18370 ft | 310 kts | 189° |
| 2026-04-30 12:39 | 32.34961 | -8.16034 | 18040 ft | 309 kts | 189° |
| 2026-04-30 12:39 | 32.32834 | -8.16380 | 17710 ft | 308 kts | 189° |
| 2026-04-30 12:39 | 32.30742 | -8.16721 | 17386 ft | 307 kts | 189° |
| 2026-04-30 12:39 | 32.28629 | -8.17065 | 17060 ft | 306 kts | 189° |
| 2026-04-30 12:40 | 32.26526 | -8.17406 | 16732 ft | 304 kts | 189° |
| 2026-04-30 12:40 | 32.24404 | -8.17750 | 16406 ft | 303 kts | 189° |
| 2026-04-30 12:40 | 32.22317 | -8.18090 | 16080 ft | 302 kts | 189° |
| 2026-04-30 12:40 | 32.20267 | -8.18423 | 15766 ft | 301 kts | 189° |
| 2026-04-30 12:41 | 32.18199 | -8.18759 | 15444 ft | 300 kts | 189° |
| 2026-04-30 12:41 | 32.16139 | -8.19093 | 15122 ft | 298 kts | 188° |
| 2026-04-30 12:41 | 32.14087 | -8.19425 | 14803 ft | 297 kts | 188° |
| 2026-04-30 12:41 | 32.12040 | -8.19348 | 14452 ft | 298 kts | 167° |
| 2026-04-30 12:42 | 32.10106 | -8.18444 | 14029 ft | 302 kts | 155° |
| 2026-04-30 12:42 | 32.08221 | -8.17313 | 13667 ft | 303 kts | 154° |
| 2026-04-30 12:42 | 32.06360 | -8.16164 | 13328 ft | 302 kts | 154° |
| 2026-04-30 12:42 | 32.04503 | -8.15019 | 12991 ft | 301 kts | 154° |
| 2026-04-30 12:43 | 32.02650 | -8.13885 | 12652 ft | 299 kts | 154° |
| 2026-04-30 12:43 | 32.00800 | -8.12762 | 12328 ft | 298 kts | 154° |
| 2026-04-30 12:43 | 31.98956 | -8.11649 | 11997 ft | 297 kts | 154° |
| 2026-04-30 12:43 | 31.97119 | -8.10545 | 11672 ft | 296 kts | 154° |
| 2026-04-30 12:44 | 31.95293 | -8.09449 | 11342 ft | 294 kts | 154° |
| 2026-04-30 12:44 | 31.93474 | -8.08360 | 11031 ft | 293 kts | 154° |
| 2026-04-30 12:44 | 31.91665 | -8.07278 | 10719 ft | 291 kts | 154° |
| 2026-04-30 12:44 | 31.89865 | -8.06201 | 10408 ft | 290 kts | 154° |
| 2026-04-30 12:45 | 31.88076 | -8.05132 | 10107 ft | 288 kts | 154° |
| 2026-04-30 12:45 | 31.86295 | -8.04069 | 9810 ft | 286 kts | 153° |
| 2026-04-30 12:45 | 31.84527 | -8.03014 | 9500 ft | 285 kts | 153° |
| 2026-04-30 12:45 | 31.82762 | -8.01962 | 9206 ft | 284 kts | 153° |
| 2026-04-30 12:46 | 31.81009 | -8.00911 | 8918 ft | 282 kts | 151° |
| 2026-04-30 12:46 | 31.79519 | -7.99458 | 8699 ft | 277 kts | 128° |
| 2026-04-30 12:46 | 31.78361 | -7.97671 | 8435 ft | 274 kts | 127° |
| 2026-04-30 12:46 | 31.77213 | -7.95886 | 8156 ft | 273 kts | 127° |
| 2026-04-30 12:47 | 31.76069 | -7.94111 | 7869 ft | 272 kts | 127° |
| 2026-04-30 12:47 | 31.74922 | -7.92341 | 7579 ft | 272 kts | 127° |
| 2026-04-30 12:47 | 31.73777 | -7.90579 | 7256 ft | 272 kts | 127° |
| 2026-04-30 12:47 | 31.72622 | -7.88807 | 6924 ft | 274 kts | 127° |
| 2026-04-30 12:48 | 31.71465 | -7.87034 | 6605 ft | 274 kts | 127° |
| 2026-04-30 12:48 | 31.70298 | -7.85251 | 6241 ft | 276 kts | 127° |
| 2026-04-30 12:48 | 31.69131 | -7.83468 | 5932 ft | 275 kts | 127° |
| 2026-04-30 12:48 | 31.67964 | -7.81688 | 5629 ft | 275 kts | 127° |
| 2026-04-30 12:49 | 31.66805 | -7.79937 | 5460 ft | 268 kts | 131° |
| 2026-04-30 12:49 | 31.65315 | -7.78681 | 5243 ft | 264 kts | 162° |
| 2026-04-30 12:49 | 31.63521 | -7.78484 | 4968 ft | 261 kts | 190° |
| 2026-04-30 12:49 | 31.61824 | -7.79159 | 4745 ft | 256 kts | 206° |
| 2026-04-30 12:50 | 31.60254 | -7.80155 | 4492 ft | 256 kts | 216° |
| 2026-04-30 12:50 | 31.59191 | -7.81714 | 4366 ft | 240 kts | 249° |
| 2026-04-30 12:50 | 31.58896 | -7.83607 | 4082 ft | 232 kts | 271° |
| 2026-04-30 12:50 | 31.59037 | -7.85452 | 3882 ft | 223 kts | 276° |
| 2026-04-30 12:51 | 31.59206 | -7.87211 | 3686 ft | 212 kts | 276° |
| 2026-04-30 12:51 | 31.59363 | -7.88895 | 3483 ft | 203 kts | 276° |
| 2026-04-30 12:51 | 31.59512 | -7.90506 | 3299 ft | 194 kts | 276° |
| 2026-04-30 12:51 | 31.59649 | -7.92017 | 3111 ft | 179 kts | 276° |
| 2026-04-30 12:52 | 31.59778 | -7.93386 | 2931 ft | 160 kts | 276° |
| 2026-04-30 12:52 | 31.59885 | -7.94647 | 2724 ft | 152 kts | 275° |
| 2026-04-30 12:52 | 31.60005 | -7.95874 | 2528 ft | 152 kts | 277° |
| 2026-04-30 12:52 | 31.60125 | -7.97113 | 2344 ft | 154 kts | 276° |
| 2026-04-30 12:53 | 31.60193 | -7.97942 | 2218 ft | 154 kts | 275° |
| 2026-04-30 12:53 | 31.60331 | -7.99590 | 1984 ft | 152 kts | 276° |
| 2026-04-30 12:53 | 31.60440 | -8.00820 | 1793 ft | 151 kts | 275° |
| 2026-04-30 12:53 | 31.60548 | -8.02034 | 1620 ft | 149 kts | 275° |
| 2026-04-30 12:54 | 31.60651 | -8.03204 | 1544 ft | 133 kts | 276° |
| 2026-04-30 12:54 | 31.60705 | -8.03819 | 1543 ft | 92 kts | 276° |
| 2026-04-30 12:54 | 31.60749 | -8.04318 | 1534 ft | 31 kts | 276° |
| 2026-04-30 12:54 | 31.60707 | -8.04391 | 1534 ft | 11 kts | 185° |
| 2026-04-30 12:55 | 31.60629 | -8.04400 | 1545 ft | 11 kts | 184° |
| 2026-04-30 12:55 | 31.60578 | -8.04330 | 1543 ft | 15 kts | 96° |
| 2026-04-30 12:55 | 31.60565 | -8.04178 | 1547 ft | 22 kts | 95° |
| 2026-04-30 12:55 | 31.60550 | -8.03994 | 1544 ft | 23 kts | 96° |
| 2026-04-30 12:56 | 31.60533 | -8.03813 | 1547 ft | 22 kts | 96° |
| 2026-04-30 12:56 | 31.60519 | -8.03638 | 1547 ft | 21 kts | 96° |
| 2026-04-30 12:56 | 31.60503 | -8.03469 | 1544 ft | 21 kts | 96° |
| 2026-04-30 12:56 | 31.60488 | -8.03302 | 1548 ft | 20 kts | 96° |
| 2026-04-30 12:57 | 31.60474 | -8.03141 | 1540 ft | 19 kts | 95° |
| 2026-04-30 12:57 | 31.60460 | -8.02988 | 1545 ft | 19 kts | 96° |
| 2026-04-30 12:57 | 31.60446 | -8.02836 | 1547 ft | 18 kts | 97° |
| 2026-04-30 12:57 | 31.60434 | -8.02691 | 1542 ft | 18 kts | 95° |
| 2026-04-30 12:58 | 31.60424 | -8.02572 | 1546 ft | 11 kts | 97° |
| 2026-04-30 12:58 | 31.60363 | -8.02539 | 1548 ft | 10 kts | 187° |
| 2026-04-30 12:58 | 31.60317 | -8.02545 | 1548 ft | 5 kts | 186° |
| 2026-04-30 12:58 | 31.60306 | -8.02546 | 1548 ft | 0 kts | 186° |